createdAt,value
2023-02-05T00:00:54.679Z,102759.06
2023-02-05T00:02:17.325Z,102777.69
2023-02-05T00:03:27.508Z,102773.38
2023-02-05T00:04:40.090Z,102766.78
2023-02-05T00:05:44.436Z,102767.13
2023-02-05T00:06:46.055Z,102772.31
2023-02-05T00:07:49.045Z,102770.41
2023-02-05T00:08:50.665Z,102781.06
2023-02-05T00:09:56.549Z,102778.34
2023-02-05T00:11:05.516Z,102778.25
2023-02-05T00:12:09.553Z,102777.22
2023-02-05T00:13:11.149Z,102760.94
2023-02-05T00:14:15.041Z,102778.38
2023-02-05T00:15:16.583Z,102778.72
2023-02-05T00:16:22.937Z,102781.47
2023-02-05T00:17:24.621Z,102780.53
2023-02-05T00:18:27.239Z,102786.94
2023-02-05T00:19:28.882Z,102776.75
2023-02-05T00:20:31.466Z,102770.91
2023-02-05T00:21:35.459Z,102776.63
2023-02-05T00:22:37.962Z,102787.28
2023-02-05T00:23:40.025Z,102785.41
2023-02-05T00:24:42.711Z,102771.63
2023-02-05T00:25:44.504Z,102779.28
2023-02-05T00:26:46.993Z,102786.94
2023-02-05T00:27:48.651Z,102775.91
2023-02-05T00:28:51.502Z,102794.91
2023-02-05T00:29:53.114Z,102801.66
2023-02-05T00:30:56.522Z,102783.03
2023-02-05T00:31:58.086Z,102797.06
2023-02-05T00:33:00.625Z,102794.09
2023-02-05T00:34:02.474Z,102783.44
2023-02-05T00:35:05.278Z,102790.81
2023-02-05T00:36:08.205Z,102790.53
2023-02-05T00:37:13.314Z,102793.22
2023-02-05T00:38:15.022Z,102773.56
2023-02-05T00:39:19.061Z,102784.13
2023-02-05T00:40:20.876Z,102769.88
2023-02-05T00:41:23.395Z,102795.22
2023-02-05T00:42:25.018Z,102789.84
2023-02-05T00:43:27.526Z,102785.41
2023-02-05T00:44:29.332Z,102791.84
2023-02-05T00:45:35.575Z,102778.94
2023-02-05T00:46:37.830Z,102777.16
2023-02-05T00:47:40.612Z,102765.66
2023-02-05T00:48:43.281Z,102768.06
2023-02-05T00:49:45.897Z,102780.19
2023-02-05T00:50:48.947Z,102773.78
2023-02-05T00:51:51.461Z,102785.19
2023-02-05T00:52:55.140Z,102785.34
2023-02-05T00:53:57.737Z,102784.66
2023-02-05T00:54:59.582Z,102777.72
2023-02-05T00:56:02.110Z,102784.31
2023-02-05T00:57:04.245Z,102773.75
2023-02-05T00:58:07.022Z,102771.44
2023-02-05T00:59:08.657Z,102779.63
2023-02-05T01:00:12.296Z,102779.91
2023-02-05T01:01:14.330Z,102781.69
2023-02-05T01:02:23.465Z,102771.16
2023-02-05T01:03:25.089Z,102783.50
2023-02-05T01:04:27.620Z,102775.22
2023-02-05T01:05:30.689Z,102776.50
2023-02-05T01:06:33.497Z,102770.75
2023-02-05T01:07:35.128Z,102762.63
2023-02-05T01:08:40.037Z,102775.72
2023-02-05T01:09:41.547Z,102772.88
2023-02-05T01:10:45.672Z,102770.56
2023-02-05T01:11:47.208Z,102771.44
2023-02-05T01:12:50.233Z,102770.75
2023-02-05T01:13:51.793Z,102765.31
2023-02-05T01:14:54.285Z,102770.56
2023-02-05T01:15:56.136Z,102774.25
2023-02-05T01:16:58.913Z,102764.72
2023-02-05T01:18:01.147Z,102773.31
2023-02-05T01:19:03.770Z,102757.59
2023-02-05T01:20:07.651Z,102771.38
2023-02-05T01:21:10.250Z,102765.31
2023-02-05T01:22:11.907Z,102764.09
2023-02-05T01:23:14.530Z,102765.34
2023-02-05T01:24:17.405Z,102765.03
2023-02-05T01:25:20.143Z,102755.75
2023-02-05T01:26:21.791Z,102760.84
2023-02-05T01:27:25.538Z,102758.50
2023-02-05T01:28:27.483Z,102755.13
2023-02-05T01:29:30.290Z,102742.41
2023-02-05T01:30:34.210Z,102730.75
2023-02-05T01:31:43.934Z,102752.09
2023-02-05T01:32:45.621Z,102737.41
2023-02-05T01:33:49.039Z,102729.38
2023-02-05T01:34:50.809Z,102729.25
2023-02-05T01:35:53.269Z,102730.84
2023-02-05T01:36:54.878Z,102722.28
2023-02-05T01:37:57.402Z,102715.19
2023-02-05T01:38:58.966Z,102710.97
2023-02-05T01:40:02.851Z,102714.00
2023-02-05T01:41:04.571Z,102714.84
2023-02-05T01:42:19.574Z,102709.00
2023-02-05T01:43:21.260Z,102699.84
2023-02-05T01:44:25.719Z,102698.88
2023-02-05T01:45:50.774Z,102700.63
2023-02-05T01:46:54.899Z,102692.47
2023-02-05T01:47:58.215Z,102703.53
2023-02-05T01:49:06.101Z,102691.41
2023-02-05T01:50:10.132Z,102692.91
2023-02-05T01:51:17.325Z,102681.19
2023-02-05T01:52:22.328Z,102695.13
2023-02-05T01:53:27.080Z,102685.91
2023-02-05T01:54:32.422Z,102683.47
2023-02-05T01:55:41.013Z,102691.34
2023-02-05T01:56:47.974Z,102686.59
2023-02-05T01:57:53.151Z,102670.06
2023-02-05T01:58:58.857Z,102689.28
2023-02-05T02:00:00.899Z,102672.13
2023-02-05T02:01:03.559Z,102683.47
2023-02-05T02:02:06.508Z,102670.06
2023-02-05T02:03:11.465Z,102685.22
2023-02-05T02:04:20.284Z,102679.50
2023-02-05T02:05:22.159Z,102680.19
2023-02-05T02:06:24.910Z,102677.72
2023-02-05T02:07:27.247Z,102691.19
2023-02-05T02:08:31.625Z,102681.09
2023-02-05T02:09:34.144Z,102681.63
2023-02-05T02:10:40.283Z,102690.50
2023-02-05T02:11:43.658Z,102698.81
2023-02-05T02:12:48.857Z,102684.69
2023-02-05T02:13:55.193Z,102684.63
2023-02-05T02:15:03.510Z,102681.78
2023-02-05T02:16:07.635Z,102666.78
2023-02-05T02:17:11.214Z,102679.56
2023-02-05T02:18:28.066Z,102670.06
2023-02-05T02:19:34.672Z,102661.34
2023-02-05T02:20:41.059Z,102659.63
2023-02-05T02:22:10.837Z,102661.19
2023-02-05T02:23:22.590Z,102668.31
2023-02-05T02:24:49.783Z,102657.81
2023-02-05T02:26:16.612Z,102662.78
2023-02-05T02:27:37.362Z,102658.09
2023-02-05T02:28:45.474Z,102647.66
2023-02-05T02:29:53.560Z,102659.81
2023-02-05T02:31:02.716Z,102652.59
2023-02-05T02:32:14.309Z,102645.53
2023-02-05T02:33:28.454Z,102646.97
2023-02-05T02:34:36.113Z,102646.69
2023-02-05T02:35:47.878Z,102641.59
2023-02-05T02:37:00.092Z,102635.44
2023-02-05T02:38:09.587Z,102648.41
2023-02-05T02:39:20.256Z,102636.16
2023-02-05T02:40:27.714Z,102650.66
2023-02-05T02:41:37.613Z,102645.78
2023-02-05T02:42:45.965Z,102648.38
2023-02-05T02:43:53.623Z,102644.91
2023-02-05T02:44:58.964Z,102643.00
2023-02-05T02:46:05.126Z,102641.47
2023-02-05T02:47:13.959Z,102641.09
2023-02-05T02:48:19.252Z,102647.28
2023-02-05T02:49:26.694Z,102642.41
2023-02-05T02:50:35.989Z,102640.03
2023-02-05T02:51:42.197Z,102630.47
2023-02-05T02:52:48.365Z,102621.47
2023-02-05T02:53:55.779Z,102633.09
2023-02-05T02:55:05.705Z,102632.69
2023-02-05T02:56:11.214Z,102643.69
2023-02-05T02:57:17.403Z,102631.97
2023-02-05T02:58:25.387Z,102627.13
2023-02-05T02:59:31.366Z,102622.91
2023-02-05T03:00:34.215Z,102625.16
2023-02-05T03:01:42.549Z,102633.94
2023-02-05T03:02:48.013Z,102630.91
2023-02-05T03:03:54.686Z,102620.97
2023-02-05T03:05:01.626Z,102626.22
2023-02-05T03:06:08.344Z,102620.44
2023-02-05T03:07:12.428Z,102616.28
2023-02-05T03:08:20.278Z,102611.06
2023-02-05T03:09:30.228Z,102611.13
2023-02-05T03:10:41.049Z,102616.19
2023-02-05T03:11:42.514Z,102608.94
2023-02-05T03:12:45.183Z,102612.63
2023-02-05T03:13:48.917Z,102611.25
2023-02-05T03:14:52.839Z,102602.72
2023-02-05T03:15:54.528Z,102607.53
2023-02-05T03:16:57.469Z,102606.97
2023-02-05T03:17:59.487Z,102614.31
2023-02-05T03:19:05.486Z,102616.31
2023-02-05T03:20:11.722Z,102605.78
2023-02-05T03:21:18.061Z,102605.69
2023-02-05T03:22:19.584Z,102612.91
2023-02-05T03:23:22.876Z,102609.84
2023-02-05T03:24:25.104Z,102606.59
2023-02-05T03:25:30.105Z,102605.09
2023-02-05T03:26:35.089Z,102600.81
2023-02-05T03:27:38.482Z,102583.09
2023-02-05T03:28:40.428Z,102587.84
2023-02-05T03:29:45.770Z,102581.34
2023-02-05T03:30:58.175Z,102587.44
2023-02-05T03:32:12.111Z,102586.47
2023-02-05T03:33:31.784Z,102582.16
2023-02-05T03:34:46.704Z,102585.72
2023-02-05T03:35:58.556Z,102586.22
2023-02-05T03:37:11.427Z,102584.09
2023-02-05T03:38:28.019Z,102581.09
2023-02-05T03:39:40.903Z,102585.63
2023-02-05T03:40:48.412Z,102583.19
2023-02-05T03:41:58.727Z,102576.44
2023-02-05T03:43:10.003Z,102575.63
2023-02-05T03:44:21.921Z,102596.69
2023-02-05T03:45:33.800Z,102586.44
2023-02-05T03:46:47.451Z,102582.69
2023-02-05T03:48:04.318Z,102579.13
2023-02-05T03:49:16.146Z,102587.91
2023-02-05T03:50:29.609Z,102566.50
2023-02-05T03:51:39.711Z,102576.81
2023-02-05T03:52:45.763Z,102586.06
2023-02-05T03:54:01.246Z,102574.66
2023-02-05T03:55:08.624Z,102588.91
2023-02-05T03:56:18.323Z,102587.28
2023-02-05T03:57:24.786Z,102583.88
2023-02-05T03:58:30.495Z,102599.34
2023-02-05T03:59:35.809Z,102600.16
2023-02-05T04:00:41.036Z,102603.22
2023-02-05T04:01:43.139Z,102600.13
2023-02-05T04:02:49.097Z,102605.72
2023-02-05T04:03:50.937Z,102588.91
2023-02-05T04:04:53.618Z,102599.06
2023-02-05T04:05:56.285Z,102588.81
2023-02-05T04:06:58.892Z,102603.69
2023-02-05T04:08:00.476Z,102593.66
2023-02-05T04:09:03.172Z,102615.00
2023-02-05T04:10:05.027Z,102600.78
2023-02-05T04:11:10.153Z,102603.97
2023-02-05T04:12:11.664Z,102607.19
2023-02-05T04:13:14.196Z,102606.78
2023-02-05T04:14:15.753Z,102591.91
2023-02-05T04:15:18.550Z,102611.06
2023-02-05T04:16:21.769Z,102604.47
2023-02-05T04:17:24.316Z,102598.56
2023-02-05T04:18:26.291Z,102611.13
2023-02-05T04:19:29.144Z,102611.09
2023-02-05T04:20:30.622Z,102612.16
2023-02-05T04:21:34.781Z,102614.19
2023-02-05T04:22:36.370Z,102614.16
2023-02-05T04:23:38.989Z,102608.00
2023-02-05T04:24:40.565Z,102612.25
2023-02-05T04:25:43.605Z,102618.41
2023-02-05T04:26:45.452Z,102620.06
2023-02-05T04:27:48.222Z,102609.94
2023-02-05T04:28:49.882Z,102609.81
2023-02-05T04:29:52.403Z,102619.25
2023-02-05T04:30:53.940Z,102611.41
2023-02-05T04:31:58.220Z,102617.94
2023-02-05T04:33:00.133Z,102625.91
2023-02-05T04:34:02.724Z,102622.91
2023-02-05T04:35:04.985Z,102619.97
2023-02-05T04:36:08.622Z,102626.44
2023-02-05T04:37:11.150Z,102609.84
2023-02-05T04:38:16.172Z,102628.41
2023-02-05T04:39:18.692Z,102619.00
2023-02-05T04:40:20.334Z,102617.13
2023-02-05T04:41:23.053Z,102620.69
2023-02-05T04:42:24.609Z,102626.69
2023-02-05T04:43:27.294Z,102615.84
2023-02-05T04:44:29.072Z,102607.84
2023-02-05T04:45:33.608Z,102627.13
2023-02-05T04:46:35.295Z,102615.75
2023-02-05T04:47:39.475Z,102610.56
2023-02-05T04:48:42.685Z,102608.72
2023-02-05T04:49:45.203Z,102609.28
2023-02-05T04:50:47.246Z,102612.66
2023-02-05T04:51:50.028Z,102619.09
2023-02-05T04:52:54.567Z,102613.97
2023-02-05T04:53:57.351Z,102611.50
2023-02-05T04:54:58.967Z,102598.59
2023-02-05T04:56:12.273Z,102611.53
2023-02-05T04:57:19.406Z,102617.53
2023-02-05T04:58:22.335Z,102624.47
2023-02-05T04:59:24.123Z,102620.94
2023-02-05T05:00:27.562Z,102616.31
2023-02-05T05:01:29.090Z,102607.41
2023-02-05T05:02:33.780Z,102628.22
2023-02-05T05:03:39.381Z,102612.41
2023-02-05T05:04:43.505Z,102624.03
2023-02-05T05:05:47.143Z,102618.84
2023-02-05T05:06:51.703Z,102614.91
2023-02-05T05:07:53.571Z,102623.78
2023-02-05T05:08:58.219Z,102617.00
2023-02-05T05:09:59.755Z,102624.28
2023-02-05T05:11:07.715Z,102613.44
2023-02-05T05:12:09.205Z,102621.28
2023-02-05T05:13:11.783Z,102612.72
2023-02-05T05:14:14.996Z,102609.53
2023-02-05T05:15:19.635Z,102620.19
2023-02-05T05:16:21.232Z,102620.88
2023-02-05T05:17:23.729Z,102616.94
2023-02-05T05:18:25.239Z,102623.81
2023-02-05T05:19:30.664Z,102613.22
2023-02-05T05:20:32.333Z,102616.25
2023-02-05T05:21:34.837Z,102613.22
2023-02-05T05:22:38.222Z,102622.06
2023-02-05T05:23:41.012Z,102625.72
2023-02-05T05:24:42.766Z,102599.25
2023-02-05T05:25:46.494Z,102610.38
2023-02-05T05:26:48.028Z,102613.06
2023-02-05T05:27:54.935Z,102608.78
2023-02-05T05:29:02.871Z,102606.91
2023-02-05T05:30:06.097Z,102608.31
2023-02-05T05:31:09.913Z,102608.66
2023-02-05T05:32:12.441Z,102602.91
2023-02-05T05:33:16.144Z,102607.69
2023-02-05T05:34:18.866Z,102600.25
2023-02-05T05:35:22.054Z,102612.47
2023-02-05T05:36:24.588Z,102612.16
2023-02-05T05:37:26.258Z,102615.84
2023-02-05T05:38:32.608Z,102623.31
2023-02-05T05:39:53.100Z,102621.69
2023-02-05T05:41:13.532Z,102609.00
2023-02-05T05:42:40.009Z,102611.00
2023-02-05T05:43:48.541Z,102595.03
2023-02-05T05:44:52.101Z,102608.34
2023-02-05T05:45:58.065Z,102613.84
2023-02-05T05:46:59.604Z,102598.16
2023-02-05T05:48:03.322Z,102602.50
2023-02-05T05:49:04.875Z,102592.34
2023-02-05T05:50:08.148Z,102582.94
2023-02-05T05:51:11.014Z,102587.56
2023-02-05T05:52:13.561Z,102594.56
2023-02-05T05:53:15.614Z,102590.00
2023-02-05T05:54:22.682Z,102595.16
2023-02-05T05:55:24.190Z,102598.31
2023-02-05T05:56:28.223Z,102597.66
2023-02-05T05:57:31.898Z,102610.84
2023-02-05T05:58:34.679Z,102614.41
2023-02-05T05:59:37.002Z,102609.38
2023-02-05T06:00:41.555Z,102599.16
2023-02-05T06:01:48.310Z,102605.41
2023-02-05T06:02:51.995Z,102606.31
2023-02-05T06:03:53.635Z,102586.31
2023-02-05T06:04:56.469Z,102590.25
2023-02-05T06:06:00.468Z,102591.41
2023-02-05T06:07:06.656Z,102573.69
2023-02-05T06:08:08.168Z,102587.63
2023-02-05T06:09:10.886Z,102582.75
2023-02-05T06:10:12.753Z,102581.94
2023-02-05T06:11:15.477Z,102585.59
2023-02-05T06:12:17.234Z,102578.66
2023-02-05T06:13:19.762Z,102586.25
2023-02-05T06:14:21.386Z,102582.38
2023-02-05T06:15:24.252Z,102580.91
2023-02-05T06:16:25.928Z,102578.09
2023-02-05T06:17:29.185Z,102582.72
2023-02-05T06:18:41.356Z,102590.28
2023-02-05T06:19:45.474Z,102577.91
2023-02-05T06:20:47.279Z,102570.75
2023-02-05T06:21:49.956Z,102583.50
2023-02-05T06:22:52.873Z,102582.25
2023-02-05T06:23:55.512Z,102573.63
2023-02-05T06:24:58.103Z,102571.47
2023-02-05T06:26:00.582Z,102562.56
2023-02-05T06:27:02.160Z,102576.72
2023-02-05T06:28:04.797Z,102578.19
2023-02-05T06:29:08.969Z,102565.63
2023-02-05T06:30:18.634Z,102567.06
2023-02-05T06:31:20.288Z,102566.47
2023-02-05T06:32:26.811Z,102556.84
2023-02-05T06:33:28.500Z,102559.34
2023-02-05T06:34:31.213Z,102569.31
2023-02-05T06:35:33.504Z,102559.63
2023-02-05T06:36:36.321Z,102570.09
2023-02-05T06:37:47.158Z,102575.00
2023-02-05T06:38:53.803Z,102575.81
2023-02-05T06:39:55.608Z,102581.19
2023-02-05T06:40:58.137Z,102595.16
2023-02-05T06:41:59.692Z,102584.78
2023-02-05T06:43:03.604Z,102587.19
2023-02-05T06:44:08.191Z,102581.66
2023-02-05T06:45:12.802Z,102581.97
2023-02-05T06:46:18.449Z,102585.50
2023-02-05T06:47:22.445Z,102575.31
2023-02-05T06:48:37.094Z,102592.78
2023-02-05T06:49:38.843Z,102579.81
2023-02-05T06:50:43.081Z,102576.28
2023-02-05T06:51:47.678Z,102592.38
2023-02-05T06:52:51.316Z,102578.97
2023-02-05T06:53:57.429Z,102586.63
2023-02-05T06:54:59.977Z,102593.59
2023-02-05T06:56:08.313Z,102595.81
2023-02-05T06:57:10.798Z,102589.38
2023-02-05T06:58:12.530Z,102599.22
2023-02-05T06:59:18.662Z,102602.66
2023-02-05T07:00:23.543Z,102587.19
2023-02-05T07:01:30.721Z,102589.41
2023-02-05T07:02:34.998Z,102581.59
2023-02-05T07:03:41.863Z,102588.09
2023-02-05T07:04:43.802Z,102578.22
2023-02-05T07:05:47.877Z,102576.31
2023-02-05T07:06:49.583Z,102574.38
2023-02-05T07:07:57.085Z,102580.09
2023-02-05T07:09:01.761Z,102573.09
2023-02-05T07:10:05.363Z,102582.56
2023-02-05T07:11:08.422Z,102572.19
2023-02-05T07:12:21.117Z,102568.41
2023-02-05T07:13:23.728Z,102577.47
2023-02-05T07:14:30.061Z,102581.13
2023-02-05T07:15:40.419Z,102573.47
2023-02-05T07:16:42.293Z,102574.47
2023-02-05T07:17:47.341Z,102569.94
2023-02-05T07:18:49.115Z,102582.03
2023-02-05T07:19:59.845Z,102566.97
2023-02-05T07:21:04.796Z,102575.75
2023-02-05T07:22:07.290Z,102567.34
2023-02-05T07:23:09.090Z,102566.13
2023-02-05T07:24:13.235Z,102569.25
2023-02-05T07:25:15.272Z,102573.69
2023-02-05T07:26:19.136Z,102578.81
2023-02-05T07:27:20.972Z,102575.44
2023-02-05T07:28:23.553Z,102556.84
2023-02-05T07:29:25.217Z,102567.25
2023-02-05T07:30:30.761Z,102559.41
2023-02-05T07:31:34.503Z,102558.44
2023-02-05T07:32:37.175Z,102550.63
2023-02-05T07:33:38.812Z,102555.81
2023-02-05T07:34:45.374Z,102550.69
2023-02-05T07:35:51.228Z,102555.16
2023-02-05T07:36:59.199Z,102555.63
2023-02-05T07:38:10.986Z,102545.19
2023-02-05T07:39:14.074Z,102549.78
2023-02-05T07:40:17.194Z,102552.75
2023-02-05T07:41:18.803Z,102556.13
2023-02-05T07:42:21.484Z,102542.97
2023-02-05T07:43:23.499Z,102547.75
2023-02-05T07:44:26.893Z,102532.88
2023-02-05T07:45:30.562Z,102541.47
2023-02-05T07:46:35.295Z,102536.53
2023-02-05T07:47:40.979Z,102526.91
2023-02-05T07:48:48.364Z,102540.94
2023-02-05T07:49:52.154Z,102527.50
2023-02-05T07:50:58.798Z,102535.34
2023-02-05T07:52:08.276Z,102529.19
2023-02-05T07:53:14.340Z,102519.31
2023-02-05T07:54:20.139Z,102531.88
2023-02-05T07:55:29.761Z,102523.63
2023-02-05T07:56:31.594Z,102526.38
2023-02-05T07:57:34.123Z,102526.94
2023-02-05T07:58:38.270Z,102519.06
2023-02-05T07:59:48.816Z,102524.72
2023-02-05T08:00:50.506Z,102514.03
2023-02-05T08:01:53.413Z,102516.88
2023-02-05T08:02:54.978Z,102533.34
2023-02-05T08:04:00.409Z,102539.47
2023-02-05T08:05:06.361Z,102539.94
2023-02-05T08:06:20.175Z,102525.25
2023-02-05T08:07:22.297Z,102528.66
2023-02-05T08:08:27.443Z,102520.41
2023-02-05T08:09:30.455Z,102530.13
2023-02-05T08:10:35.228Z,102530.53
2023-02-05T08:11:39.405Z,102517.59
2023-02-05T08:12:48.978Z,102520.25
2023-02-05T08:13:53.474Z,102517.28
2023-02-05T08:14:56.327Z,102509.63
2023-02-05T08:16:01.235Z,102499.41
2023-02-05T08:17:06.055Z,102508.53
2023-02-05T08:18:11.516Z,102506.09
2023-02-05T08:19:15.790Z,102516.09
2023-02-05T08:20:32.281Z,102496.91
2023-02-05T08:21:35.898Z,102513.59
2023-02-05T08:22:45.743Z,102503.41
2023-02-05T08:23:47.343Z,102497.38
2023-02-05T08:24:57.951Z,102493.38
2023-02-05T08:26:03.452Z,102503.28
2023-02-05T08:27:18.067Z,102496.78
2023-02-05T08:28:22.002Z,102496.75
2023-02-05T08:29:26.697Z,102502.56
2023-02-05T08:30:38.534Z,102499.72
2023-02-05T08:31:45.478Z,102490.59
2023-02-05T08:32:52.510Z,102493.47
2023-02-05T08:34:03.566Z,102476.78
2023-02-05T08:35:33.543Z,102492.91
2023-02-05T08:36:47.847Z,102499.03
2023-02-05T08:38:22.930Z,102489.81
2023-02-05T08:39:35.632Z,102501.50
2023-02-05T08:40:38.991Z,102496.50
2023-02-05T08:42:02.975Z,102495.13
2023-02-05T08:43:07.027Z,102488.69
2023-02-05T08:44:09.933Z,102485.13
2023-02-05T08:45:28.461Z,102482.78
2023-02-05T08:46:49.647Z,102474.94
2023-02-05T08:48:34.913Z,102471.81
2023-02-05T08:49:38.270Z,102463.34
2023-02-05T08:50:46.829Z,102471.41
2023-02-05T08:52:00.261Z,102475.19
2023-02-05T08:53:02.871Z,102466.38
2023-02-05T08:54:19.678Z,102479.84
2023-02-05T08:55:23.806Z,102476.56
2023-02-05T08:56:30.949Z,102482.63
2023-02-05T08:57:35.278Z,102467.63
2023-02-05T08:58:46.044Z,102480.34
2023-02-05T08:59:49.422Z,102475.16
2023-02-05T09:00:55.211Z,102477.06
2023-02-05T09:01:58.052Z,102471.50
2023-02-05T09:03:01.476Z,102484.34
2023-02-05T09:04:06.930Z,102487.34
2023-02-05T09:05:09.824Z,102479.44
2023-02-05T09:06:21.433Z,102478.00
2023-02-05T09:07:36.727Z,102480.28
2023-02-05T09:08:40.120Z,102478.84
2023-02-05T09:10:12.050Z,102472.97
2023-02-05T09:11:14.702Z,102462.06
2023-02-05T09:12:20.661Z,102470.97
2023-02-05T09:13:23.201Z,102480.03
2023-02-05T09:15:00.673Z,102465.91
2023-02-05T09:16:14.984Z,102468.09
2023-02-05T09:17:17.998Z,102474.31
2023-02-05T09:18:25.505Z,102473.31
2023-02-05T09:19:27.988Z,102457.69
2023-02-05T09:20:49.339Z,102462.72
2023-02-05T09:21:53.331Z,102466.53
2023-02-05T09:22:56.735Z,102458.50
2023-02-05T09:23:58.645Z,102455.84
2023-02-05T09:25:02.441Z,102455.41
2023-02-05T09:26:05.350Z,102455.34
2023-02-05T09:27:06.880Z,102456.06
2023-02-05T09:28:13.566Z,102454.41
2023-02-05T09:29:15.068Z,102453.69
2023-02-05T09:30:18.740Z,102458.53
2023-02-05T09:31:21.179Z,102450.03
2023-02-05T09:32:24.657Z,102446.44
2023-02-05T09:33:26.111Z,102449.88
2023-02-05T09:34:29.865Z,102443.00
2023-02-05T09:35:33.306Z,102439.44
2023-02-05T09:36:37.671Z,102452.69
2023-02-05T09:37:40.475Z,102455.22
2023-02-05T09:39:02.019Z,102454.44
2023-02-05T09:40:21.399Z,102451.97
2023-02-05T09:41:33.008Z,102442.06
2023-02-05T09:42:44.544Z,102456.00
2023-02-05T09:43:55.134Z,102456.69
2023-02-05T09:45:08.238Z,102457.72
2023-02-05T09:46:18.171Z,102456.03
2023-02-05T09:47:27.540Z,102463.13
2023-02-05T09:48:43.841Z,102461.97
2023-02-05T09:49:54.714Z,102459.16
2023-02-05T09:50:58.127Z,102466.34
2023-02-05T09:52:08.797Z,102461.88
2023-02-05T09:53:18.116Z,102458.53
2023-02-05T09:54:30.168Z,102456.25
2023-02-05T09:55:35.996Z,102450.75
2023-02-05T09:56:40.080Z,102441.31
2023-02-05T09:57:43.122Z,102445.72
2023-02-05T09:58:49.552Z,102457.63
2023-02-05T09:59:51.967Z,102451.59
2023-02-05T10:01:00.635Z,102448.41
2023-02-05T10:02:23.151Z,102449.38
2023-02-05T10:03:31.175Z,102440.81
2023-02-05T10:04:33.674Z,102439.56
2023-02-05T10:05:41.034Z,102440.50
2023-02-05T10:07:06.228Z,102430.84
2023-02-05T10:08:17.794Z,102436.63
2023-02-05T10:09:35.287Z,102440.25
2023-02-05T10:10:44.398Z,102437.66
2023-02-05T10:11:51.541Z,102435.16
2023-02-05T10:13:09.986Z,102425.75
2023-02-05T10:14:39.502Z,102442.03
2023-02-05T10:15:58.238Z,102439.53
2023-02-05T10:17:24.713Z,102441.38
2023-02-05T10:18:35.263Z,102439.69
2023-02-05T10:19:52.170Z,102442.34
2023-02-05T10:21:02.540Z,102444.91
2023-02-05T10:22:16.217Z,102437.69
2023-02-05T10:23:31.709Z,102449.09
2023-02-05T10:24:48.221Z,102447.06
2023-02-05T10:26:08.319Z,102435.03
2023-02-05T10:27:18.912Z,102448.31
2023-02-05T10:28:51.264Z,102429.38
2023-02-05T10:30:04.076Z,102442.31
2023-02-05T10:31:13.646Z,102437.25
2023-02-05T10:32:22.838Z,102429.69
2023-02-05T10:33:41.816Z,102433.47
2023-02-05T10:34:54.017Z,102437.34
2023-02-05T10:35:59.965Z,102429.56
2023-02-05T10:38:19.103Z,102433.28
2023-02-05T10:39:23.123Z,102427.50
2023-02-05T10:40:29.844Z,102430.34
2023-02-05T10:41:39.661Z,102415.06
2023-02-05T10:42:48.527Z,102425.56
2023-02-05T10:44:01.188Z,102433.22
2023-02-05T10:45:18.129Z,102420.81
2023-02-05T10:46:20.786Z,102413.91
2023-02-05T10:47:41.366Z,102420.47
2023-02-05T10:48:58.374Z,102418.13
2023-02-05T10:50:09.957Z,102409.94
2023-02-05T10:51:16.171Z,102405.31
2023-02-05T10:52:18.097Z,102411.97
2023-02-05T10:53:26.175Z,102404.53
2023-02-05T10:54:30.998Z,102405.00
2023-02-05T10:55:38.742Z,102401.56
2023-02-05T10:56:51.130Z,102408.75
2023-02-05T10:57:56.623Z,102398.59
2023-02-05T10:59:04.593Z,102396.88
2023-02-05T11:00:16.476Z,102396.09
2023-02-05T11:01:32.647Z,102395.75
2023-02-05T11:02:54.197Z,102402.66
2023-02-05T11:04:07.726Z,102393.59
2023-02-05T11:05:53.563Z,102392.66
2023-02-05T11:07:01.908Z,102385.19
2023-02-05T11:08:11.377Z,102373.78
2023-02-05T11:09:35.772Z,102380.91
2023-02-05T11:10:51.778Z,102374.63
2023-02-05T11:11:59.279Z,102386.03
2023-02-05T11:13:18.237Z,102379.63
2023-02-05T11:14:25.361Z,102387.06
2023-02-05T11:16:55.891Z,102382.00
2023-02-05T11:18:29.234Z,102388.66
2023-02-05T11:19:40.261Z,102384.38
2023-02-05T11:21:00.184Z,102366.00
2023-02-05T11:22:17.117Z,102384.22
2023-02-05T11:23:38.510Z,102384.44
2023-02-05T11:24:41.364Z,102380.22
2023-02-05T11:27:16.548Z,102377.09
2023-02-05T11:28:27.332Z,102366.56
2023-02-05T11:29:30.109Z,102378.19
2023-02-05T11:30:52.648Z,102373.16
2023-02-05T11:31:55.845Z,102368.22
2023-02-05T11:32:58.980Z,102366.38
2023-02-05T11:34:12.570Z,102383.16
2023-02-05T11:35:21.106Z,102366.72
2023-02-05T11:36:25.980Z,102365.41
2023-02-05T11:37:27.629Z,102383.50
2023-02-05T11:38:44.790Z,102384.22
2023-02-05T11:39:56.555Z,102369.00
2023-02-05T11:41:01.650Z,102381.56
2023-02-05T11:42:11.366Z,102375.72
2023-02-05T11:43:21.728Z,102379.03
2023-02-05T11:44:29.867Z,102369.00
2023-02-05T11:45:35.303Z,102386.94
2023-02-05T11:46:45.198Z,102382.16
2023-02-05T11:47:47.900Z,102369.88
2023-02-05T11:48:59.359Z,102378.97
2023-02-05T11:50:01.853Z,102377.50
2023-02-05T11:51:08.308Z,102375.50
2023-02-05T11:52:15.186Z,102364.31
2023-02-05T11:53:21.883Z,102378.72
2023-02-05T11:54:29.754Z,102373.03
2023-02-05T11:55:36.127Z,102378.31
2023-02-05T11:56:40.593Z,102378.56
2023-02-05T11:57:43.892Z,102375.63
2023-02-05T11:58:59.315Z,102360.59
2023-02-05T12:00:19.118Z,102368.91
2023-02-05T12:01:25.682Z,102372.81
2023-02-05T12:02:31.313Z,102359.41
2023-02-05T12:03:35.202Z,102362.72
2023-02-05T12:04:46.543Z,102384.09
2023-02-05T12:05:53.878Z,102376.91
2023-02-05T12:07:01.223Z,102375.69
2023-02-05T12:08:09.275Z,102383.38
2023-02-05T12:09:15.666Z,102364.59
2023-02-05T12:10:19.068Z,102369.31
2023-02-05T12:11:56.154Z,102364.81
2023-02-05T12:13:08.952Z,102358.41
2023-02-05T12:14:20.737Z,102364.25
2023-02-05T12:15:26.600Z,102369.84
2023-02-05T12:16:46.415Z,102352.53
2023-02-05T12:17:55.619Z,102368.94
2023-02-05T12:19:07.749Z,102368.72
2023-02-05T12:20:22.648Z,102354.69
2023-02-05T12:21:38.557Z,102351.97
2023-02-05T12:23:05.633Z,102363.69
2023-02-05T12:24:39.617Z,102358.69
2023-02-05T12:25:53.700Z,102349.53
2023-02-05T12:27:07.234Z,102361.13
2023-02-05T12:28:24.299Z,102360.25
2023-02-05T12:29:46.816Z,102362.09
2023-02-05T12:31:00.147Z,102358.47
2023-02-05T12:32:11.147Z,102361.84
2023-02-05T12:33:29.999Z,102359.41
2023-02-05T12:34:43.189Z,102367.84
2023-02-05T12:36:01.104Z,102345.09
2023-02-05T12:37:29.007Z,102355.34
2023-02-05T12:38:48.556Z,102369.50
2023-02-05T12:39:54.287Z,102366.44
2023-02-05T12:41:11.784Z,102356.63
2023-02-05T12:42:25.390Z,102367.16
2023-02-05T12:43:38.199Z,102370.13
2023-02-05T12:44:54.273Z,102355.53
2023-02-05T12:46:04.484Z,102357.88
2023-02-05T12:47:20.628Z,102374.22
2023-02-05T12:48:52.899Z,102371.22
2023-02-05T12:50:19.411Z,102360.91